Overview Statistics Trail Chart Weather Telemetry Raw packets
 

This is the latest recevied weather packets stored in our database for station/object EA7URS-13. If no packets are shown the sender has not sent any weather packets the latest 10 day(s).

<< 20 21 22 23 24 25 26 >>
Time Temp. Humidity Pressure Rain* Wind** Luminosity Snow
1788517847 30.56° C 60% 1013.9 hPa 0 mm - 226 W/m² -
1788517546 30.56° C 59% 1013.7 hPa 0 mm - 261 W/m² -
1788517245 30.56° C 59% 1013.7 hPa 0 mm - 261 W/m² -
1788516943 30° C 62% 1014 hPa 0 mm - 492 W/m² -
1788516642 30° C 62% 1014 hPa 0 mm - 492 W/m² -
1788516341 29.44° C 64% 1014 hPa 0 mm - 408 W/m² -
1788516039 29.44° C 64% 1014 hPa 0 mm - 408 W/m² -
1788515738 28.33° C 68% 1014.1 hPa 0 mm - 522 W/m² -
1788515437 28.33° C 68% 1014.1 hPa 0 mm - 522 W/m² -
1788515136 27.78° C 70% 1014.1 hPa 0 mm - 170 W/m² -
1788514841 27.78° C 70% 1014.1 hPa 0 mm - 170 W/m² -
1788514534 27.22° C 72% 1013.8 hPa 0 mm - 287 W/m² -
1788514233 27.22° C 72% 1013.8 hPa 0 mm - 287 W/m² -
1788513931 26.67° C 74% 1014.1 hPa 0 mm - 243 W/m² -
1788513630 26.67° C 74% 1014.1 hPa 0 mm - 243 W/m² -
1788513348 26.67° C 75% 1014 hPa 0 mm - 186 W/m² -
1788513027 26.67° C 75% 1014 hPa 0 mm - 186 W/m² -
1788512726 26.11° C 77% 1014 hPa 0 mm - 293 W/m² -
1788512425 26.11° C 77% 1014 hPa 0 mm - 293 W/m² -
1788512123 25.56° C 81% 1014.2 hPa 0 mm - 242 W/m² -
1788511821 25.56° C 81% 1014.2 hPa 0 mm - 242 W/m² -
1788511520 25° C 80% 1014.1 hPa 0 mm - 140 W/m² -
1788511219 25° C 80% 1014.1 hPa 0 mm - 140 W/m² -
1788510918 25° C 80% 1014.3 hPa 0 mm - 127 W/m² -
1788510617 25° C 80% 1014.3 hPa 0 mm - 127 W/m² -

* Rain latest hour (hover to see other rain measurements)
** Current wind speed in m/s (hover to see current wind gust speed)